sensor_id;sensor_type;location;lat;lon;timestamp;pressure;altitude;pressure_sealevel;temperature;humidity
75617;BME280;64200;55.426;37.758;2023-03-23T00:01:54;99095.16;;;5.25;58.99
75617;BME280;64200;55.426;37.758;2023-03-23T00:06:55;99107.91;;;5.23;58.84
75617;BME280;64200;55.426;37.758;2023-03-23T00:11:56;99103.34;;;5.29;58.75
75617;BME280;64200;55.426;37.758;2023-03-23T00:17:05;99101.56;;;5.35;58.71
75617;BME280;64200;55.426;37.758;2023-03-23T00:22:05;99109.13;;;5.35;58.98
75617;BME280;64200;55.426;37.758;2023-03-23T00:27:07;99121.59;;;5.26;58.89
75617;BME280;64200;55.426;37.758;2023-03-23T00:32:09;99117.41;;;5.35;58.63
75617;BME280;64200;55.426;37.758;2023-03-23T00:37:13;99109.56;;;5.33;59.03
75617;BME280;64200;55.426;37.758;2023-03-23T00:42:16;99109.34;;;5.40;58.81
75617;BME280;64200;55.426;37.758;2023-03-23T00:47:17;99104.66;;;5.37;58.37
75617;BME280;64200;55.426;37.758;2023-03-23T00:52:17;99097.03;;;5.41;58.21
75617;BME280;64200;55.426;37.758;2023-03-23T00:57:18;99096.03;;;5.35;58.51
75617;BME280;64200;55.426;37.758;2023-03-23T01:02:18;99088.41;;;5.26;58.79
75617;BME280;64200;55.426;37.758;2023-03-23T01:07:20;99079.34;;;5.26;59.17
75617;BME280;64200;55.426;37.758;2023-03-23T01:12:23;99085.13;;;5.19;58.96
75617;BME280;64200;55.426;37.758;2023-03-23T01:17:25;99077.59;;;5.19;59.33
75617;BME280;64200;55.426;37.758;2023-03-23T01:22:25;99074.59;;;5.26;59.01
75617;BME280;64200;55.426;37.758;2023-03-23T01:27:25;99065.97;;;5.24;59.63
75617;BME280;64200;55.426;37.758;2023-03-23T01:32:26;99059.78;;;5.20;59.38
75617;BME280;64200;55.426;37.758;2023-03-23T01:37:27;99045.06;;;5.10;59.83
75617;BME280;64200;55.426;37.758;2023-03-23T01:42:33;99047.19;;;5.06;59.43
75617;BME280;64200;55.426;37.758;2023-03-23T01:47:35;99051.72;;;5.00;60.19
75617;BME280;64200;55.426;37.758;2023-03-23T01:52:37;99048.50;;;5.02;60.22
75617;BME280;64200;55.426;37.758;2023-03-23T01:57:38;99042.44;;;4.94;60.74
75617;BME280;64200;55.426;37.758;2023-03-23T02:02:39;99032.03;;;4.98;60.13
75617;BME280;64200;55.426;37.758;2023-03-23T02:07:41;99041.56;;;4.84;61.08
75617;BME280;64200;55.426;37.758;2023-03-23T02:12:42;99042.09;;;4.79;61.60
75617;BME280;64200;55.426;37.758;2023-03-23T02:17:57;99045.88;;;4.72;60.91
75617;BME280;64200;55.426;37.758;2023-03-23T02:23:11;99036.56;;;4.53;61.96
75617;BME280;64200;55.426;37.758;2023-03-23T02:38:43;99038.16;;;4.25;63.11
75617;BME280;64200;55.426;37.758;2023-03-23T02:43:45;99029.72;;;4.16;64.24
75617;BME280;64200;55.426;37.758;2023-03-23T02:48:47;99027.59;;;4.07;64.79
75617;BME280;64200;55.426;37.758;2023-03-23T02:53:53;99038.06;;;3.99;65.20
75617;BME280;64200;55.426;37.758;2023-03-23T02:58:56;99029.97;;;3.92;65.80
75617;BME280;64200;55.426;37.758;2023-03-23T03:03:57;99036.22;;;3.80;66.62
75617;BME280;64200;55.426;37.758;2023-03-23T03:09:17;99034.00;;;3.75;67.01
75617;BME280;64200;55.426;37.758;2023-03-23T03:14:31;99040.28;;;3.75;66.89
75617;BME280;64200;55.426;37.758;2023-03-23T03:19:42;99038.34;;;3.59;67.62
75617;BME280;64200;55.426;37.758;2023-03-23T03:24:44;99032.81;;;3.59;67.02
75617;BME280;64200;55.426;37.758;2023-03-23T03:29:48;99017.69;;;3.51;68.00
75617;BME280;64200;55.426;37.758;2023-03-23T03:34:51;99029.72;;;3.57;67.84
75617;BME280;64200;55.426;37.758;2023-03-23T03:39:54;99030.94;;;3.56;68.27
75617;BME280;64200;55.426;37.758;2023-03-23T03:44:56;99036.44;;;3.56;68.45
75617;BME280;64200;55.426;37.758;2023-03-23T03:49:56;99029.16;;;3.49;68.71
75617;BME280;64200;55.426;37.758;2023-03-23T03:54:57;99017.25;;;3.53;69.51
75617;BME280;64200;55.426;37.758;2023-03-23T03:59:58;99022.22;;;3.58;69.33
75617;BME280;64200;55.426;37.758;2023-03-23T04:04:58;99013.50;;;3.59;69.01
75617;BME280;64200;55.426;37.758;2023-03-23T04:09:59;99003.66;;;3.75;69.19
75617;BME280;64200;55.426;37.758;2023-03-23T04:14:59;99003.88;;;3.80;69.25
75617;BME280;64200;55.426;37.758;2023-03-23T04:20:00;98998.53;;;3.90;68.81
75617;BME280;64200;55.426;37.758;2023-03-23T04:25:01;99011.47;;;4.05;69.29
75617;BME280;64200;55.426;37.758;2023-03-23T04:30:05;99006.88;;;4.15;68.66
75617;BME280;64200;55.426;37.758;2023-03-23T04:35:07;99012.66;;;4.34;67.86
75617;BME280;64200;55.426;37.758;2023-03-23T04:40:09;99012.22;;;4.48;67.64
75617;BME280;64200;55.426;37.758;2023-03-23T04:45:15;99019.09;;;4.56;68.54
75617;BME280;64200;55.426;37.758;2023-03-23T04:50:16;99001.84;;;4.78;67.33
75617;BME280;64200;55.426;37.758;2023-03-23T04:55:18;99000.66;;;5.05;66.89
75617;BME280;64200;55.426;37.758;2023-03-23T05:00:20;99001.84;;;5.17;67.15
75617;BME280;64200;55.426;37.758;2023-03-23T05:05:22;98999.03;;;5.30;66.17
75617;BME280;64200;55.426;37.758;2023-03-23T05:10:23;98980.50;;;5.17;66.96
75617;BME280;64200;55.426;37.758;2023-03-23T05:15:24;98981.44;;;5.36;66.18
75617;BME280;64200;55.426;37.758;2023-03-23T05:20:24;98982.03;;;5.53;65.78
75617;BME280;64200;55.426;37.758;2023-03-23T05:25:25;98996.69;;;5.76;65.47
75617;BME280;64200;55.426;37.758;2023-03-23T05:30:26;98991.03;;;5.79;64.87
75617;BME280;64200;55.426;37.758;2023-03-23T05:35:28;98992.28;;;6.01;64.64
75617;BME280;64200;55.426;37.758;2023-03-23T05:40:28;98992.41;;;6.19;64.49
75617;BME280;64200;55.426;37.758;2023-03-23T05:45:30;99003.06;;;6.52;62.90
75617;BME280;64200;55.426;37.758;2023-03-23T05:50:30;99003.31;;;6.76;61.86
75617;BME280;64200;55.426;37.758;2023-03-23T05:55:31;99004.16;;;7.04;60.26
75617;BME280;64200;55.426;37.758;2023-03-23T06:00:31;98997.91;;;7.23;60.65
75617;BME280;64200;55.426;37.758;2023-03-23T06:05:32;98981.63;;;7.52;58.56
75617;BME280;64200;55.426;37.758;2023-03-23T06:10:33;98999.66;;;7.66;58.08
75617;BME280;64200;55.426;37.758;2023-03-23T06:15:36;98989.03;;;7.83;56.78
75617;BME280;64200;55.426;37.758;2023-03-23T06:20:37;99017.22;;;8.28;57.04
75617;BME280;64200;55.426;37.758;2023-03-23T06:25:39;98994.47;;;8.39;54.84
75617;BME280;64200;55.426;37.758;2023-03-23T06:30:39;99004.56;;;8.88;54.91
75617;BME280;64200;55.426;37.758;2023-03-23T06:35:40;98995.41;;;8.88;54.00
75617;BME280;64200;55.426;37.758;2023-03-23T06:40:41;98999.94;;;9.58;52.97
75617;BME280;64200;55.426;37.758;2023-03-23T06:45:46;99008.19;;;9.76;52.12
75617;BME280;64200;55.426;37.758;2023-03-23T06:50:47;98995.38;;;10.09;51.72
75617;BME280;64200;55.426;37.758;2023-03-23T06:55:47;99001.22;;;10.85;49.38
75617;BME280;64200;55.426;37.758;2023-03-23T07:00:48;99015.00;;;11.45;47.75
75617;BME280;64200;55.426;37.758;2023-03-23T07:05:49;99009.31;;;11.19;48.15
75617;BME280;64200;55.426;37.758;2023-03-23T07:10:52;99018.56;;;11.46;48.67
75617;BME280;64200;55.426;37.758;2023-03-23T07:15:53;98985.94;;;11.78;47.33
75617;BME280;64200;55.426;37.758;2023-03-23T07:20:53;98992.50;;;11.95;45.13
75617;BME280;64200;55.426;37.758;2023-03-23T07:25:54;98976.63;;;12.07;43.36
75617;BME280;64200;55.426;37.758;2023-03-23T07:30:54;98974.50;;;12.92;45.53
75617;BME280;64200;55.426;37.758;2023-03-23T07:35:58;98985.97;;;13.98;41.05
75617;BME280;64200;55.426;37.758;2023-03-23T07:40:59;98972.97;;;13.95;39.05
75617;BME280;64200;55.426;37.758;2023-03-23T07:45:59;98969.94;;;14.95;40.18
75617;BME280;64200;55.426;37.758;2023-03-23T07:51:00;98972.94;;;16.97;35.82
75617;BME280;64200;55.426;37.758;2023-03-23T07:56:00;98969.06;;;16.70;34.83
75617;BME280;64200;55.426;37.758;2023-03-23T08:01:03;98968.59;;;18.54;33.37
75617;BME280;64200;55.426;37.758;2023-03-23T08:06:07;98976.88;;;19.38;30.55
75617;BME280;64200;55.426;37.758;2023-03-23T08:11:08;98961.81;;;18.12;28.74
75617;BME280;64200;55.426;37.758;2023-03-23T08:16:09;98964.50;;;20.58;28.19
75617;BME280;64200;55.426;37.758;2023-03-23T08:21:10;98946.22;;;20.04;27.03
75617;BME280;64200;55.426;37.758;2023-03-23T08:26:10;98950.59;;;20.47;27.41
75617;BME280;64200;55.426;37.758;2023-03-23T08:31:13;98951.22;;;20.53;26.47
75617;BME280;64200;55.426;37.758;2023-03-23T08:36:13;98951.41;;;21.26;25.83
75617;BME280;64200;55.426;37.758;2023-03-23T08:41:14;98939.16;;;18.95;26.93
75617;BME280;64200;55.426;37.758;2023-03-23T08:46:15;98940.84;;;18.85;26.91
75617;BME280;64200;55.426;37.758;2023-03-23T08:51:15;98940.09;;;19.65;27.21
75617;BME280;64200;55.426;37.758;2023-03-23T08:56:16;98941.03;;;19.94;28.05
75617;BME280;64200;55.426;37.758;2023-03-23T09:01:17;98939.41;;;20.62;27.06
75617;BME280;64200;55.426;37.758;2023-03-23T09:06:17;98927.84;;;21.91;24.27
75617;BME280;64200;55.426;37.758;2023-03-23T09:11:18;98914.72;;;21.28;26.52
75617;BME280;64200;55.426;37.758;2023-03-23T09:16:18;98934.09;;;21.45;25.39
75617;BME280;64200;55.426;37.758;2023-03-23T09:21:19;98908.81;;;21.55;23.48
75617;BME280;64200;55.426;37.758;2023-03-23T09:26:20;98914.56;;;21.70;23.05
75617;BME280;64200;55.426;37.758;2023-03-23T09:31:21;98905.06;;;24.52;21.43
75617;BME280;64200;55.426;37.758;2023-03-23T09:36:22;98893.16;;;27.07;18.18
75617;BME280;64200;55.426;37.758;2023-03-23T09:47:14;98871.16;;;27.39;17.34
75617;BME280;64200;55.426;37.758;2023-03-23T09:52:19;98870.53;;;27.40;17.71
75617;BME280;64200;55.426;37.758;2023-03-23T10:02:38;98859.69;;;27.39;16.12
75617;BME280;64200;55.426;37.758;2023-03-23T10:07:41;98850.09;;;28.26;16.75
75617;BME280;64200;55.426;37.758;2023-03-23T10:12:58;98838.44;;;30.58;14.12
75617;BME280;64200;55.426;37.758;2023-03-23T10:18:27;98835.09;;;29.12;15.45
75617;BME280;64200;55.426;37.758;2023-03-23T10:29:07;98813.59;;;27.85;16.53
75617;BME280;64200;55.426;37.758;2023-03-23T10:34:17;98817.47;;;29.18;14.93
75617;BME280;64200;55.426;37.758;2023-03-23T10:39:24;98808.84;;;29.39;14.59
75617;BME280;64200;55.426;37.758;2023-03-23T10:44:27;98794.75;;;29.43;14.18
75617;BME280;64200;55.426;37.758;2023-03-23T10:49:32;98793.22;;;27.30;17.15
75617;BME280;64200;55.426;37.758;2023-03-23T10:54:39;98804.97;;;29.13;14.71
75617;BME280;64200;55.426;37.758;2023-03-23T10:59:41;98799.72;;;25.69;17.39
75617;BME280;64200;55.426;37.758;2023-03-23T11:04:45;98795.50;;;27.83;16.33
75617;BME280;64200;55.426;37.758;2023-03-23T11:09:55;98817.81;;;26.94;16.24
75617;BME280;64200;55.426;37.758;2023-03-23T11:15:03;98793.13;;;26.70;17.25
75617;BME280;64200;55.426;37.758;2023-03-23T11:20:13;98787.28;;;29.74;14.80
75617;BME280;64200;55.426;37.758;2023-03-23T11:25:15;98772.16;;;28.61;14.81
75617;BME280;64200;55.426;37.758;2023-03-23T11:30:23;98780.06;;;25.28;17.22
75617;BME280;64200;55.426;37.758;2023-03-23T11:35:27;98791.88;;;27.31;16.25
75617;BME280;64200;55.426;37.758;2023-03-23T11:40:30;98779.84;;;28.15;15.24
75617;BME280;64200;55.426;37.758;2023-03-23T11:45:37;98778.69;;;26.11;17.63
75617;BME280;64200;55.426;37.758;2023-03-23T11:50:48;98782.25;;;27.37;16.01
75617;BME280;64200;55.426;37.758;2023-03-23T11:55:55;98777.94;;;25.73;16.97
75617;BME280;64200;55.426;37.758;2023-03-23T12:00:58;98779.22;;;26.66;17.20
75617;BME280;64200;55.426;37.758;2023-03-23T12:06:10;98775.66;;;25.72;17.41
75617;BME280;64200;55.426;37.758;2023-03-23T12:33:01;98754.59;;;17.23;26.76
75617;BME280;64200;55.426;37.758;2023-03-23T12:43:26;98744.50;;;17.14;28.30
75617;BME280;64200;55.426;37.758;2023-03-23T12:48:53;98742.03;;;17.24;28.10
75617;BME280;64200;55.426;37.758;2023-03-23T13:04:32;98718.78;;;18.42;26.30
75617;BME280;64200;55.426;37.758;2023-03-23T13:09:50;98729.22;;;16.91;28.60
75617;BME280;64200;55.426;37.758;2023-03-23T13:25:59;98714.63;;;14.97;32.20
75617;BME280;64200;55.426;37.758;2023-03-23T13:36:14;98706.72;;;14.42;33.28
75617;BME280;64200;55.426;37.758;2023-03-23T13:41:17;98704.09;;;13.51;35.66
75617;BME280;64200;55.426;37.758;2023-03-23T13:56:39;98691.06;;;13.82;35.44
75617;BME280;64200;55.426;37.758;2023-03-23T14:01:40;98695.66;;;13.91;35.40
75617;BME280;64200;55.426;37.758;2023-03-23T14:06:42;98700.78;;;13.76;35.80
75617;BME280;64200;55.426;37.758;2023-03-23T14:11:56;98694.69;;;13.55;36.04
75617;BME280;64200;55.426;37.758;2023-03-23T14:17:30;98683.72;;;13.45;36.09
75617;BME280;64200;55.426;37.758;2023-03-23T14:22:35;98689.78;;;13.10;37.12
75617;BME280;64200;55.426;37.758;2023-03-23T14:27:39;98684.69;;;12.91;37.30
75617;BME280;64200;55.426;37.758;2023-03-23T14:32:42;98674.19;;;12.63;38.10
75617;BME280;64200;55.426;37.758;2023-03-23T14:37:44;98679.22;;;12.48;38.98
75617;BME280;64200;55.426;37.758;2023-03-23T14:42:45;98671.00;;;12.33;39.40
75617;BME280;64200;55.426;37.758;2023-03-23T14:47:59;98673.34;;;12.46;39.32
75617;BME280;64200;55.426;37.758;2023-03-23T14:53:11;98662.50;;;12.05;40.45
75617;BME280;64200;55.426;37.758;2023-03-23T14:58:14;98655.56;;;11.89;41.08
75617;BME280;64200;55.426;37.758;2023-03-23T15:03:17;98656.09;;;11.93;41.20
75617;BME280;64200;55.426;37.758;2023-03-23T15:08:24;98655.84;;;11.59;42.44
75617;BME280;64200;55.426;37.758;2023-03-23T15:13:32;98652.56;;;11.98;40.80
75617;BME280;64200;55.426;37.758;2023-03-23T15:18:36;98644.91;;;11.93;41.05
75617;BME280;64200;55.426;37.758;2023-03-23T15:23:42;98640.50;;;11.81;41.57
75617;BME280;64200;55.426;37.758;2023-03-23T15:28:43;98628.22;;;11.61;41.52
75617;BME280;64200;55.426;37.758;2023-03-23T15:33:44;98610.13;;;11.51;42.02
75617;BME280;64200;55.426;37.758;2023-03-23T15:38:46;98620.22;;;11.42;42.53
75617;BME280;64200;55.426;37.758;2023-03-23T15:43:53;98617.22;;;11.14;43.17
75617;BME280;64200;55.426;37.758;2023-03-23T15:54:03;98619.47;;;11.10;43.37
75617;BME280;64200;55.426;37.758;2023-03-23T15:59:06;98626.44;;;10.94;43.86
75617;BME280;64200;55.426;37.758;2023-03-23T16:04:11;98627.75;;;10.99;43.35
75617;BME280;64200;55.426;37.758;2023-03-23T16:09:15;98619.50;;;10.58;44.60
75617;BME280;64200;55.426;37.758;2023-03-23T16:14:16;98598.63;;;10.74;44.01
75617;BME280;64200;55.426;37.758;2023-03-23T16:19:17;98619.50;;;10.58;44.76
75617;BME280;64200;55.426;37.758;2023-03-23T16:24:19;98616.88;;;10.48;44.97
75617;BME280;64200;55.426;37.758;2023-03-23T16:29:20;98622.22;;;10.52;44.67
75617;BME280;64200;55.426;37.758;2023-03-23T16:34:20;98614.91;;;10.54;44.70
75617;BME280;64200;55.426;37.758;2023-03-23T16:39:21;98615.13;;;10.51;44.60
75617;BME280;64200;55.426;37.758;2023-03-23T16:44:22;98610.88;;;10.56;44.29
75617;BME280;64200;55.426;37.758;2023-03-23T16:49:23;98613.44;;;10.59;44.69
75617;BME280;64200;55.426;37.758;2023-03-23T16:54:23;98619.50;;;10.58;44.11
75617;BME280;64200;55.426;37.758;2023-03-23T16:59:26;98616.06;;;10.42;44.41
75617;BME280;64200;55.426;37.758;2023-03-23T17:04:28;98613.97;;;10.37;44.59
75617;BME280;64200;55.426;37.758;2023-03-23T17:09:29;98606.16;;;10.41;44.46
75617;BME280;64200;55.426;37.758;2023-03-23T17:14:30;98600.84;;;10.23;45.00
75617;BME280;64200;55.426;37.758;2023-03-23T17:19:30;98591.66;;;10.16;45.16
75617;BME280;64200;55.426;37.758;2023-03-23T17:24:31;98594.78;;;10.03;45.53
75617;BME280;64200;55.426;37.758;2023-03-23T17:29:32;98579.03;;;9.95;45.30
75617;BME280;64200;55.426;37.758;2023-03-23T17:34:32;98574.88;;;9.90;45.62
75617;BME280;64200;55.426;37.758;2023-03-23T17:39:33;98573.16;;;9.93;45.46
75617;BME280;64200;55.426;37.758;2023-03-23T17:44:34;98555.75;;;9.77;46.19
75617;BME280;64200;55.426;37.758;2023-03-23T17:49:34;98543.34;;;9.78;46.04
75617;BME280;64200;55.426;37.758;2023-03-23T17:54:35;98538.06;;;9.60;46.34
75617;BME280;64200;55.426;37.758;2023-03-23T17:59:36;98529.28;;;9.46;46.86
75617;BME280;64200;55.426;37.758;2023-03-23T18:04:36;98510.31;;;9.45;46.75
75617;BME280;64200;55.426;37.758;2023-03-23T18:09:37;98515.53;;;9.37;46.98
75617;BME280;64200;55.426;37.758;2023-03-23T18:14:37;98506.31;;;9.31;47.07
75617;BME280;64200;55.426;37.758;2023-03-23T18:19:39;98511.44;;;9.18;48.28
75617;BME280;64200;55.426;37.758;2023-03-23T18:24:39;98517.22;;;9.14;49.20
75617;BME280;64200;55.426;37.758;2023-03-23T18:29:40;98526.03;;;9.12;49.52
75617;BME280;64200;55.426;37.758;2023-03-23T18:34:40;98501.72;;;8.92;50.37
75617;BME280;64200;55.426;37.758;2023-03-23T18:39:42;98492.03;;;8.88;50.83
75617;BME280;64200;55.426;37.758;2023-03-23T18:44:42;98484.75;;;8.90;51.28
75617;BME280;64200;55.426;37.758;2023-03-23T18:49:43;98474.13;;;8.89;51.01
75617;BME280;64200;55.426;37.758;2023-03-23T18:54:46;98453.59;;;8.86;50.97
75617;BME280;64200;55.426;37.758;2023-03-23T18:59:47;98469.66;;;8.97;51.36
75617;BME280;64200;55.426;37.758;2023-03-23T19:04:48;98464.31;;;8.93;51.79
75617;BME280;64200;55.426;37.758;2023-03-23T19:09:49;98462.88;;;8.98;51.68
75617;BME280;64200;55.426;37.758;2023-03-23T19:14:49;98462.13;;;8.98;52.32
75617;BME280;64200;55.426;37.758;2023-03-23T19:19:51;98464.59;;;8.95;52.11
75617;BME280;64200;55.426;37.758;2023-03-23T19:24:52;98459.25;;;8.92;52.63
75617;BME280;64200;55.426;37.758;2023-03-23T19:29:52;98473.72;;;8.96;52.71
75617;BME280;64200;55.426;37.758;2023-03-23T19:34:53;98453.47;;;8.95;52.54
75617;BME280;64200;55.426;37.758;2023-03-23T19:39:54;98440.34;;;8.96;52.30
75617;BME280;64200;55.426;37.758;2023-03-23T19:44:54;98413.25;;;8.76;53.35
75617;BME280;64200;55.426;37.758;2023-03-23T19:49:55;98421.22;;;8.83;53.29
75617;BME280;64200;55.426;37.758;2023-03-23T19:54:58;98432.06;;;8.81;53.34
75617;BME280;64200;55.426;37.758;2023-03-23T20:00:03;98398.78;;;8.87;53.50
75617;BME280;64200;55.426;37.758;2023-03-23T20:05:06;98397.00;;;8.69;54.25
75617;BME280;64200;55.426;37.758;2023-03-23T20:10:07;98401.38;;;8.75;54.42
75617;BME280;64200;55.426;37.758;2023-03-23T20:15:08;98384.75;;;8.60;54.43
75617;BME280;64200;55.426;37.758;2023-03-23T20:20:09;98391.06;;;8.61;54.72
75617;BME280;64200;55.426;37.758;2023-03-23T20:25:09;98395.78;;;8.55;55.25
75617;BME280;64200;55.426;37.758;2023-03-23T20:30:11;98379.38;;;8.57;55.26
75617;BME280;64200;55.426;37.758;2023-03-23T20:35:12;98396.44;;;8.65;55.25
75617;BME280;64200;55.426;37.758;2023-03-23T20:40:13;98371.00;;;8.51;55.72
75617;BME280;64200;55.426;37.758;2023-03-23T20:45:14;98354.59;;;8.53;56.26
75617;BME280;64200;55.426;37.758;2023-03-23T20:50:15;98343.75;;;8.55;56.12
75617;BME280;64200;55.426;37.758;2023-03-23T20:55:15;98341.34;;;8.48;56.87
75617;BME280;64200;55.426;37.758;2023-03-23T21:00:16;98342.91;;;8.49;56.81
75617;BME280;64200;55.426;37.758;2023-03-23T21:05:17;98343.00;;;8.40;57.23
75617;BME280;64200;55.426;37.758;2023-03-23T21:10:20;98360.06;;;8.48;57.27
75617;BME280;64200;55.426;37.758;2023-03-23T21:15:25;98389.38;;;8.49;57.86
75617;BME280;64200;55.426;37.758;2023-03-23T21:20:25;98363.63;;;8.69;57.20
75617;BME280;64200;55.426;37.758;2023-03-23T21:25:27;98339.66;;;8.71;57.15
75617;BME280;64200;55.426;37.758;2023-03-23T21:30:28;98347.91;;;8.66;57.61
75617;BME280;64200;55.426;37.758;2023-03-23T21:35:29;98332.22;;;8.63;57.78
75617;BME280;64200;55.426;37.758;2023-03-23T21:40:30;98329.28;;;8.72;57.17
75617;BME280;64200;55.426;37.758;2023-03-23T21:45:30;98332.13;;;8.57;57.70
75617;BME280;64200;55.426;37.758;2023-03-23T21:50:36;98319.50;;;8.56;57.56
75617;BME280;64200;55.426;37.758;2023-03-23T21:55:40;98320.97;;;8.51;57.97
75617;BME280;64200;55.426;37.758;2023-03-23T22:00:43;98308.56;;;8.52;57.96
75617;BME280;64200;55.426;37.758;2023-03-23T22:05:45;98293.28;;;8.63;57.83
75617;BME280;64200;55.426;37.758;2023-03-23T22:10:48;98277.31;;;8.57;57.81
75617;BME280;64200;55.426;37.758;2023-03-23T22:15:49;98270.44;;;8.53;58.05
75617;BME280;64200;55.426;37.758;2023-03-23T22:20:50;98274.03;;;8.38;59.01
75617;BME280;64200;55.426;37.758;2023-03-23T22:25:51;98276.78;;;8.38;58.91
75617;BME280;64200;55.426;37.758;2023-03-23T22:31:07;98274.44;;;8.31;59.44
75617;BME280;64200;55.426;37.758;2023-03-23T22:36:08;98275.25;;;8.37;59.31
75617;BME280;64200;55.426;37.758;2023-03-23T22:41:15;98246.50;;;8.40;59.06
75617;BME280;64200;55.426;37.758;2023-03-23T22:46:17;98241.84;;;8.32;59.59
75617;BME280;64200;55.426;37.758;2023-03-23T22:51:18;98244.34;;;8.30;59.73
75617;BME280;64200;55.426;37.758;2023-03-23T22:56:19;98226.50;;;8.36;59.80
75617;BME280;64200;55.426;37.758;2023-03-23T23:01:22;98213.78;;;8.30;59.89
75617;BME280;64200;55.426;37.758;2023-03-23T23:06:22;98206.63;;;8.23;60.38
75617;BME280;64200;55.426;37.758;2023-03-23T23:11:24;98208.16;;;8.24;60.19
75617;BME280;64200;55.426;37.758;2023-03-23T23:16:25;98188.16;;;8.20;60.35
75617;BME280;64200;55.426;37.758;2023-03-23T23:21:26;98200.31;;;8.22;60.43
75617;BME280;64200;55.426;37.758;2023-03-23T23:26:28;98183.38;;;8.20;60.94
75617;BME280;64200;55.426;37.758;2023-03-23T23:31:29;98183.09;;;8.18;61.10
75617;BME280;64200;55.426;37.758;2023-03-23T23:36:32;98164.63;;;8.15;61.23
75617;BME280;64200;55.426;37.758;2023-03-23T23:41:34;98148.16;;;8.12;61.15
75617;BME280;64200;55.426;37.758;2023-03-23T23:46:34;98137.63;;;8.16;61.03
75617;BME280;64200;55.426;37.758;2023-03-23T23:51:35;98133.31;;;8.15;61.20
75617;BME280;64200;55.426;37.758;2023-03-23T23:56:36;98128.84;;;8.23;61.09
